createdAt,value
2022-12-02T00:43:29.601Z,50.19
2022-12-02T00:44:26.700Z,50.48
2022-12-02T00:45:13.870Z,51.44
2022-12-02T00:46:01.178Z,51.06
2022-12-02T00:46:38.558Z,51.03
2022-12-02T00:47:11.454Z,50.87
2022-12-02T00:47:43.566Z,51.06
2022-12-02T00:48:18.223Z,50.71
2022-12-02T00:48:50.306Z,51.13
2022-12-02T00:49:22.417Z,51.39
2022-12-02T00:49:57.737Z,51.58
2022-12-02T00:50:29.991Z,51.92
2022-12-02T00:51:02.690Z,50.83
2022-12-02T00:51:38.733Z,50.47
2022-12-02T00:52:10.854Z,50.31
2022-12-02T00:52:43.512Z,50.31
2022-12-02T00:53:18.272Z,50.77
2022-12-02T00:53:50.741Z,50.33
2022-12-02T00:54:22.928Z,49.97
2022-12-02T00:54:58.613Z,49.50
2022-12-02T00:55:30.674Z,49.64
2022-12-02T00:56:02.808Z,49.34
2022-12-02T00:56:35.724Z,49.62
2022-12-02T00:57:10.377Z,50.12
2022-12-02T00:57:42.557Z,50.17
2022-12-02T00:58:17.508Z,50.13
2022-12-02T00:58:49.578Z,50.63
2022-12-02T00:59:24.427Z,50.83
2022-12-02T00:59:56.621Z,51.05
2022-12-02T01:00:28.698Z,50.88
2022-12-02T01:01:01.081Z,50.89
2022-12-02T01:01:38.149Z,51.40
2022-12-02T01:02:10.344Z,51.00
2022-12-02T01:02:42.498Z,50.47
2022-12-02T01:03:17.385Z,50.20
2022-12-02T01:03:49.612Z,50.30
2022-12-02T01:04:23.691Z,50.43
2022-12-02T01:04:58.357Z,50.41
2022-12-02T01:05:30.452Z,50.50
2022-12-02T01:06:02.524Z,50.58
2022-12-02T01:06:37.297Z,49.44
2022-12-02T01:07:09.366Z,49.88
2022-12-02T01:07:41.512Z,49.59
2022-12-02T01:08:16.199Z,49.78
2022-12-02T01:08:48.561Z,50.18
2022-12-02T01:09:20.632Z,49.92
2022-12-02T01:09:55.307Z,49.82
2022-12-02T01:10:27.485Z,49.73
2022-12-02T01:10:59.635Z,49.78
2022-12-02T01:11:34.417Z,49.52
2022-12-02T01:12:06.979Z,49.42
2022-12-02T01:12:39.045Z,49.02
2022-12-02T01:13:13.698Z,49.26
2022-12-02T01:13:48.352Z,49.23
2022-12-02T01:14:20.956Z,49.36
2022-12-02T01:14:55.618Z,48.96
2022-12-02T01:15:27.846Z,49.05
2022-12-02T01:15:59.973Z,48.84
2022-12-02T01:16:36.444Z,48.67
2022-12-02T01:17:08.660Z,48.37
2022-12-02T01:17:40.717Z,48.98
2022-12-02T01:18:12.805Z,49.19
2022-12-02T01:18:47.511Z,48.91
2022-12-02T01:19:20.188Z,49.17
2022-12-02T01:19:52.250Z,49.45
2022-12-02T01:20:26.911Z,49.18
2022-12-02T01:20:59.008Z,49.16
2022-12-02T01:21:31.118Z,49.16
2022-12-02T01:22:05.811Z,48.96
2022-12-02T01:22:37.954Z,49.11
2022-12-02T01:23:10.276Z,48.85
2022-12-02T01:23:44.927Z,48.33
2022-12-02T01:24:17.112Z,48.36
2022-12-02T01:24:49.630Z,48.37
2022-12-02T01:25:24.472Z,48.56
2022-12-02T01:25:56.644Z,48.74
2022-12-02T01:26:28.720Z,48.49
2022-12-02T01:27:00.861Z,48.45
2022-12-02T01:27:35.518Z,48.48
2022-12-02T01:28:07.913Z,48.86
2022-12-02T01:28:40.031Z,48.94
2022-12-02T01:29:17.306Z,48.77
2022-12-02T01:29:49.407Z,48.58
2022-12-02T01:30:21.506Z,48.05
2022-12-02T01:30:56.194Z,48.92
2022-12-02T01:31:29.188Z,48.63
2022-12-02T01:32:01.383Z,48.82
2022-12-02T01:32:36.167Z,48.76
2022-12-02T01:33:08.633Z,48.84
2022-12-02T01:33:40.771Z,48.61
2022-12-02T01:34:15.423Z,48.85
2022-12-02T01:34:47.678Z,48.96
2022-12-02T01:35:20.524Z,48.30
2022-12-02T01:35:55.180Z,48.01
2022-12-02T01:36:27.289Z,48.12
2022-12-02T01:36:59.367Z,47.93
2022-12-02T01:37:34.069Z,47.51
2022-12-02T01:38:06.149Z,47.58
2022-12-02T01:38:39.862Z,47.71
2022-12-02T01:39:14.542Z,47.80
2022-12-02T01:39:46.637Z,47.98
2022-12-02T01:40:19.514Z,48.17
2022-12-02T01:40:55.326Z,47.88
2022-12-02T01:41:27.551Z,48.34
2022-12-02T01:41:59.768Z,48.16
2022-12-02T01:42:34.711Z,48.17
2022-12-02T01:43:07.588Z,48.80
2022-12-02T01:43:39.760Z,48.50
2022-12-02T01:44:17.100Z,48.23
2022-12-02T01:44:49.702Z,48.81
2022-12-02T01:45:22.483Z,48.76
2022-12-02T01:45:57.369Z,48.58
2022-12-02T01:46:30.629Z,48.75
2022-12-02T01:47:03.074Z,48.52
2022-12-02T01:47:38.621Z,48.54
2022-12-02T01:48:10.868Z,48.51
2022-12-02T01:48:43.250Z,48.31
2022-12-02T01:49:18.068Z,48.17
2022-12-02T01:49:51.192Z,48.31
2022-12-02T01:50:23.548Z,48.69
2022-12-02T01:50:58.583Z,48.93
2022-12-02T01:51:30.862Z,48.57
2022-12-02T01:52:03.039Z,47.94
2022-12-02T01:52:35.533Z,48.39
2022-12-02T01:53:10.268Z,47.95
2022-12-02T01:53:42.465Z,48.03
2022-12-02T01:54:14.806Z,47.87
2022-12-02T01:54:49.859Z,47.81
2022-12-02T01:55:24.118Z,48.05
2022-12-02T01:55:59.058Z,48.24
2022-12-02T01:56:31.430Z,48.25
2022-12-02T01:57:05.015Z,48.59
2022-12-02T01:57:39.716Z,48.40
2022-12-02T01:58:13.772Z,48.90
2022-12-02T01:58:45.950Z,48.47
2022-12-02T01:59:25.713Z,48.50
2022-12-02T01:59:58.305Z,48.51
2022-12-02T02:00:30.567Z,48.64
2022-12-02T02:01:05.431Z,48.79
2022-12-02T02:01:38.117Z,48.73
2022-12-02T02:02:25.694Z,48.43
2022-12-02T02:03:00.454Z,48.54
2022-12-02T02:03:34.366Z,48.70
2022-12-02T02:04:07.812Z,48.70
2022-12-02T02:04:42.557Z,48.71
2022-12-02T02:05:17.153Z,48.05
2022-12-02T02:05:51.627Z,48.12
2022-12-02T02:06:27.419Z,48.63
2022-12-02T02:06:59.511Z,48.82
2022-12-02T02:07:32.401Z,49.04
2022-12-02T02:08:09.390Z,49.01
2022-12-02T02:08:41.670Z,48.51
2022-12-02T02:09:14.587Z,48.56
2022-12-02T02:09:49.384Z,48.42
2022-12-02T02:10:23.481Z,48.48
2022-12-02T02:10:56.133Z,48.16
2022-12-02T02:11:32.468Z,48.54
2022-12-02T02:12:05.922Z,48.14
2022-12-02T02:12:38.027Z,48.29
2022-12-02T02:13:15.954Z,48.02
2022-12-02T02:13:48.507Z,47.85
2022-12-02T02:14:23.177Z,48.13
2022-12-02T02:14:55.666Z,48.39
2022-12-02T02:15:30.656Z,48.46
2022-12-02T02:16:03.913Z,48.50
2022-12-02T02:16:37.786Z,48.48
2022-12-02T02:17:12.553Z,48.58
2022-12-02T02:17:45.395Z,48.68
2022-12-02T02:18:18.489Z,48.74
2022-12-02T02:18:53.266Z,48.87
2022-12-02T02:19:25.805Z,48.81
2022-12-02T02:19:58.053Z,48.37
2022-12-02T02:20:32.929Z,48.07
2022-12-02T02:21:07.752Z,48.32
2022-12-02T02:21:46.052Z,47.87
2022-12-02T02:22:26.174Z,48.20
2022-12-02T02:23:07.765Z,48.75
2022-12-02T02:23:46.095Z,48.65
2022-12-02T02:24:20.878Z,48.68
2022-12-02T02:24:53.262Z,48.20
2022-12-02T02:25:25.659Z,48.16
2022-12-02T02:26:02.517Z,48.48
2022-12-02T02:26:38.764Z,48.47
2022-12-02T02:27:11.348Z,48.40
2022-12-02T02:27:49.410Z,48.33
2022-12-02T02:28:24.505Z,49.04
2022-12-02T02:28:59.326Z,49.05
2022-12-02T02:29:31.898Z,48.86
2022-12-02T02:30:05.779Z,48.81
2022-12-02T02:30:40.750Z,48.68
2022-12-02T02:31:12.993Z,48.68
2022-12-02T02:31:51.521Z,49.14
2022-12-02T02:32:24.092Z,49.24
2022-12-02T02:32:57.558Z,48.98
2022-12-02T02:33:34.854Z,48.78
2022-12-02T02:34:07.471Z,48.93
2022-12-02T02:34:39.676Z,48.54
2022-12-02T02:35:11.851Z,48.72
2022-12-02T02:35:48.651Z,48.50
2022-12-02T02:36:20.870Z,48.58
2022-12-02T02:36:53.911Z,48.09
2022-12-02T02:37:28.617Z,48.54
2022-12-02T02:38:01.450Z,48.57
2022-12-02T02:38:35.274Z,48.84
2022-12-02T02:39:12.980Z,48.63
2022-12-02T02:39:45.106Z,48.94
2022-12-02T02:40:20.634Z,48.77
2022-12-02T02:40:56.501Z,49.09
2022-12-02T02:41:29.316Z,48.59
2022-12-02T02:42:01.796Z,48.39
2022-12-02T02:42:34.549Z,48.98
2022-12-02T02:43:09.768Z,48.75
2022-12-02T02:43:43.311Z,48.61
2022-12-02T02:44:22.529Z,48.73
2022-12-02T02:44:58.998Z,48.89
2022-12-02T02:45:35.042Z,48.34
2022-12-02T02:46:12.500Z,48.63
2022-12-02T02:46:46.808Z,48.66
2022-12-02T02:47:19.294Z,48.71
2022-12-02T02:47:54.724Z,48.22
2022-12-02T02:48:27.367Z,48.27
2022-12-02T02:48:59.519Z,48.80
2022-12-02T02:49:34.228Z,48.57
2022-12-02T02:50:08.698Z,48.58
2022-12-02T02:50:44.329Z,48.54
2022-12-02T02:51:20.540Z,48.62
2022-12-02T02:51:52.924Z,48.95
2022-12-02T02:52:25.181Z,48.69
2022-12-02T02:52:58.036Z,48.69
2022-12-02T02:53:33.421Z,49.17
2022-12-02T02:54:09.493Z,49.03
2022-12-02T02:54:41.664Z,49.20
2022-12-02T02:55:21.954Z,49.35
2022-12-02T02:55:54.664Z,49.06
2022-12-02T02:56:27.450Z,48.64
2022-12-02T02:57:02.151Z,48.89
2022-12-02T02:57:36.155Z,49.42
2022-12-02T02:58:10.420Z,49.15
2022-12-02T02:58:45.387Z,49.39
2022-12-02T02:59:17.516Z,49.33
2022-12-02T02:59:55.854Z,49.45
2022-12-02T03:00:31.965Z,49.47
2022-12-02T03:01:09.914Z,49.63
2022-12-02T03:01:47.660Z,49.65
2022-12-02T03:02:20.548Z,49.38
2022-12-02T03:02:55.703Z,49.48
2022-12-02T03:03:34.780Z,49.11
2022-12-02T03:04:10.750Z,48.92
2022-12-02T03:04:44.857Z,49.03
2022-12-02T03:05:21.840Z,49.59
2022-12-02T03:05:56.166Z,49.36
2022-12-02T03:06:30.591Z,48.97
2022-12-02T03:07:05.619Z,49.04
2022-12-02T03:07:38.023Z,49.06
2022-12-02T03:08:11.047Z,48.96
2022-12-02T03:08:49.490Z,49.06
2022-12-02T03:09:25.276Z,48.68
2022-12-02T03:09:57.784Z,48.80
2022-12-02T03:10:32.857Z,48.64
2022-12-02T03:11:06.043Z,48.67
2022-12-02T03:11:39.381Z,48.87
2022-12-02T03:12:14.445Z,48.85
2022-12-02T03:12:47.213Z,49.11
2022-12-02T03:13:19.644Z,49.09
2022-12-02T03:13:55.370Z,49.00
2022-12-02T03:14:28.169Z,48.74
2022-12-02T03:15:02.204Z,49.06
2022-12-02T03:15:34.418Z,48.76
2022-12-02T03:16:12.383Z,49.17
2022-12-02T03:16:45.452Z,49.06
2022-12-02T03:17:17.789Z,48.90
2022-12-02T03:17:53.292Z,49.06
2022-12-02T03:18:25.789Z,49.00
2022-12-02T03:18:58.522Z,49.24
2022-12-02T03:19:37.233Z,49.24
2022-12-02T03:20:10.558Z,49.61
2022-12-02T03:20:42.661Z,49.45
2022-12-02T03:21:19.115Z,49.19
2022-12-02T03:21:51.461Z,48.89
2022-12-02T03:22:23.972Z,49.10
2022-12-02T03:22:58.673Z,49.01
2022-12-02T03:23:31.826Z,48.83
2022-12-02T03:24:05.769Z,48.94
2022-12-02T03:24:44.071Z,48.87
2022-12-02T03:25:16.643Z,49.03
2022-12-02T03:25:49.386Z,49.47
2022-12-02T03:26:24.645Z,49.16
2022-12-02T03:26:56.775Z,49.30
2022-12-02T03:27:29.138Z,49.20
2022-12-02T03:28:04.415Z,49.29
2022-12-02T03:28:36.927Z,49.16
2022-12-02T03:29:11.710Z,48.96
2022-12-02T03:29:46.889Z,49.26
2022-12-02T03:30:19.056Z,49.19
2022-12-02T03:30:52.450Z,49.20
2022-12-02T03:31:28.232Z,49.64
2022-12-02T03:32:01.318Z,49.94
2022-12-02T03:32:33.990Z,49.69
2022-12-02T03:33:08.665Z,49.31
2022-12-02T03:33:41.782Z,49.09
2022-12-02T03:34:14.580Z,48.94
2022-12-02T03:34:49.761Z,49.14
2022-12-02T03:35:22.200Z,49.04
2022-12-02T03:35:54.664Z,49.34
2022-12-02T03:36:30.408Z,48.89
2022-12-02T03:37:02.775Z,49.03
2022-12-02T03:37:34.923Z,49.06
2022-12-02T03:38:09.673Z,48.59
2022-12-02T03:38:43.021Z,48.90
2022-12-02T03:39:15.155Z,49.04
2022-12-02T03:39:52.898Z,49.07
2022-12-02T03:40:25.183Z,49.21
2022-12-02T03:40:57.327Z,49.26
2022-12-02T03:41:32.503Z,49.36
2022-12-02T03:42:05.365Z,49.36
2022-12-02T03:42:37.943Z,49.50
2022-12-02T03:43:12.765Z,49.41
2022-12-02T03:43:45.041Z,49.29
2022-12-02T03:44:17.549Z,49.05
2022-12-02T03:44:53.717Z,49.09
2022-12-02T03:45:26.203Z,49.19
2022-12-02T03:45:59.132Z,49.30
2022-12-02T03:46:34.343Z,48.82
2022-12-02T03:47:06.662Z,49.01
2022-12-02T03:47:40.018Z,48.96
2022-12-02T03:48:12.931Z,48.83
2022-12-02T03:48:48.294Z,48.65
2022-12-02T03:49:20.535Z,48.99
2022-12-02T03:49:52.780Z,49.15
2022-12-02T03:50:27.535Z,49.44
2022-12-02T03:50:59.760Z,49.56
2022-12-02T03:51:32.462Z,49.53
2022-12-02T03:52:07.757Z,49.31
2022-12-02T03:52:40.406Z,49.43
2022-12-02T03:53:12.502Z,49.60
2022-12-02T03:53:48.115Z,49.65
2022-12-02T03:54:20.339Z,50.20
2022-12-02T03:54:55.762Z,49.95
2022-12-02T03:55:30.561Z,49.69
2022-12-02T03:56:03.645Z,49.66
2022-12-02T03:56:37.898Z,49.52
2022-12-02T03:57:12.787Z,49.48
2022-12-02T03:57:44.931Z,49.76
2022-12-02T03:58:17.294Z,49.81
2022-12-02T03:58:54.399Z,50.16
2022-12-02T03:59:28.042Z,49.94
2022-12-02T04:00:00.482Z,49.89
2022-12-02T04:00:32.764Z,49.71
2022-12-02T04:01:08.384Z,49.93
2022-12-02T04:01:40.492Z,49.72
2022-12-02T04:02:12.699Z,49.73
2022-12-02T04:02:44.970Z,49.80
2022-12-02T04:03:19.963Z,49.86
2022-12-02T04:03:52.011Z,50.05
2022-12-02T04:04:24.104Z,50.12
2022-12-02T04:04:58.786Z,50.13
2022-12-02T04:05:31.637Z,50.35
2022-12-02T04:06:04.146Z,50.20
2022-12-02T04:06:38.803Z,49.96
2022-12-02T04:07:10.889Z,50.18
2022-12-02T04:07:43.138Z,49.91
2022-12-02T04:08:17.909Z,49.77
2022-12-02T04:08:49.988Z,49.63
2022-12-02T04:09:22.056Z,49.49
2022-12-02T04:09:59.297Z,49.75
2022-12-02T04:10:31.492Z,49.97
2022-12-02T04:11:03.893Z,50.37
2022-12-02T04:11:38.720Z,50.52
2022-12-02T04:12:10.784Z,49.97
2022-12-02T04:12:43.105Z,49.61
2022-12-02T04:13:15.227Z,49.48
2022-12-02T04:13:49.992Z,49.53
2022-12-02T04:14:22.069Z,49.78
2022-12-02T04:14:54.356Z,50.01
2022-12-02T04:15:26.504Z,49.83
2022-12-02T04:16:01.359Z,49.82
2022-12-02T04:16:33.505Z,49.49
2022-12-02T04:17:08.275Z,49.70
2022-12-02T04:17:43.328Z,49.79
2022-12-02T04:18:15.417Z,50.11
2022-12-02T04:18:48.258Z,49.92
2022-12-02T04:19:20.329Z,50.07
2022-12-02T04:19:55.734Z,50.05
2022-12-02T04:20:27.844Z,49.99
2022-12-02T04:20:59.954Z,50.50
2022-12-02T04:21:34.679Z,50.78
2022-12-02T04:22:06.741Z,50.39
2022-12-02T04:22:38.807Z,50.56
2022-12-02T04:23:11.100Z,50.19
2022-12-02T04:23:45.804Z,50.02
2022-12-02T04:24:17.893Z,49.89
2022-12-02T04:24:50.354Z,50.01
2022-12-02T04:25:27.809Z,50.57
2022-12-02T04:25:59.924Z,50.70
2022-12-02T04:26:32.073Z,50.69
2022-12-02T04:27:04.234Z,50.53
2022-12-02T04:27:38.901Z,50.61
2022-12-02T04:28:10.977Z,50.37
2022-12-02T04:28:43.059Z,50.78
2022-12-02T04:29:17.833Z,50.57
2022-12-02T04:29:49.899Z,50.84
2022-12-02T04:30:21.979Z,50.79
2022-12-02T04:30:56.827Z,50.34
2022-12-02T04:31:29.060Z,50.57
2022-12-02T04:32:01.229Z,50.48
2022-12-02T04:32:35.908Z,50.44
2022-12-02T04:33:07.998Z,50.35
2022-12-02T04:33:40.071Z,50.30
2022-12-02T04:34:14.836Z,50.49
2022-12-02T04:34:46.976Z,50.76
2022-12-02T04:35:19.143Z,50.02
2022-12-02T04:35:53.927Z,50.63
2022-12-02T04:36:26.066Z,50.36
2022-12-02T04:36:58.148Z,50.64
2022-12-02T04:37:32.857Z,50.55
2022-12-02T04:38:10.287Z,50.66
2022-12-02T04:38:43.992Z,50.84
2022-12-02T04:39:18.648Z,50.45
2022-12-02T04:39:50.912Z,50.78
2022-12-02T04:40:25.629Z,50.15
2022-12-02T04:41:00.305Z,50.47
2022-12-02T04:41:32.384Z,50.60
2022-12-02T04:42:04.546Z,50.58
2022-12-02T04:42:39.361Z,50.66
2022-12-02T04:43:11.453Z,50.50
2022-12-02T04:43:43.550Z,50.80
2022-12-02T04:44:18.539Z,50.62
2022-12-02T04:44:50.888Z,50.42
2022-12-02T04:45:23.098Z,50.87
2022-12-02T04:45:57.917Z,50.78
2022-12-02T04:46:30.069Z,50.85
2022-12-02T04:47:02.313Z,50.25
2022-12-02T04:47:37.017Z,50.53
2022-12-02T04:48:10.125Z,50.38
2022-12-02T04:48:42.231Z,50.47
2022-12-02T04:49:16.969Z,50.57
2022-12-02T04:49:49.152Z,50.67
2022-12-02T04:50:21.260Z,50.91
2022-12-02T04:50:55.913Z,50.81
2022-12-02T04:51:28.004Z,51.67
2022-12-02T04:52:00.112Z,51.27
2022-12-02T04:52:34.827Z,50.98
2022-12-02T04:53:06.978Z,51.21
2022-12-02T04:53:39.119Z,51.38
2022-12-02T04:54:13.934Z,51.29
2022-12-02T04:54:46.002Z,51.29
2022-12-02T04:55:18.191Z,51.11
2022-12-02T04:55:55.454Z,51.78
2022-12-02T04:56:27.584Z,51.43
2022-12-02T04:56:59.697Z,50.95
2022-12-02T04:57:34.824Z,50.85
2022-12-02T04:58:06.938Z,51.03
2022-12-02T04:58:39.078Z,50.80
2022-12-02T04:59:13.725Z,50.81
2022-12-02T04:59:45.816Z,50.99
2022-12-02T05:00:18.238Z,50.50
2022-12-02T05:00:52.893Z,50.31
2022-12-02T05:01:24.982Z,51.01
2022-12-02T05:01:57.152Z,51.94
2022-12-02T05:02:31.902Z,51.32
2022-12-02T05:03:04.184Z,51.31
2022-12-02T05:03:36.288Z,50.59
2022-12-02T05:04:11.056Z,50.65
2022-12-02T05:04:43.224Z,50.20
2022-12-02T05:05:15.442Z,50.40
2022-12-02T05:05:50.127Z,50.87
2022-12-02T05:06:22.183Z,50.67
2022-12-02T05:06:54.258Z,50.67
2022-12-02T05:07:29.141Z,50.95
2022-12-02T05:08:01.313Z,50.48
2022-12-02T05:08:33.422Z,50.68
2022-12-02T05:09:08.098Z,50.74
2022-12-02T05:09:40.157Z,50.77
2022-12-02T05:10:12.233Z,51.21
2022-12-02T05:10:46.898Z,51.25
2022-12-02T05:11:21.624Z,51.27
2022-12-02T05:11:53.689Z,51.40
2022-12-02T05:12:28.394Z,51.53
2022-12-02T05:13:00.506Z,51.40
2022-12-02T05:13:32.589Z,51.30
2022-12-02T05:14:04.814Z,51.22
2022-12-02T05:14:39.455Z,51.20
2022-12-02T05:15:11.912Z,51.49
2022-12-02T05:15:44.070Z,51.59
2022-12-02T05:16:18.837Z,51.99
2022-12-02T05:16:50.929Z,52.05
2022-12-02T05:17:23.014Z,52.42
2022-12-02T05:17:57.684Z,52.53
2022-12-02T05:18:29.718Z,52.14
2022-12-02T05:19:02.169Z,52.04
2022-12-02T05:19:34.270Z,52.19
2022-12-02T05:20:10.718Z,51.71
2022-12-02T05:20:42.828Z,51.58
2022-12-02T05:21:14.893Z,52.08
2022-12-02T05:21:49.620Z,51.89
2022-12-02T05:22:21.719Z,51.76
2022-12-02T05:22:54.050Z,51.66
2022-12-02T05:23:28.784Z,52.37
2022-12-02T05:24:00.920Z,51.95
2022-12-02T05:24:33.070Z,51.71
2022-12-02T05:25:09.082Z,51.79
2022-12-02T05:25:41.159Z,51.71
2022-12-02T05:26:15.865Z,51.52
2022-12-02T05:26:50.594Z,51.33
2022-12-02T05:27:22.671Z,51.90
2022-12-02T05:27:58.150Z,51.80
2022-12-02T05:28:30.233Z,51.85
2022-12-02T05:29:02.392Z,52.18
2022-12-02T05:29:37.112Z,52.06
2022-12-02T05:30:11.514Z,51.95
2022-12-02T05:30:43.644Z,52.36
2022-12-02T05:31:18.555Z,52.04
2022-12-02T05:31:50.778Z,52.18
2022-12-02T05:32:22.939Z,52.50
2022-12-02T05:32:57.695Z,52.34
2022-12-02T05:33:29.747Z,52.22
2022-12-02T05:34:01.824Z,51.99
2022-12-02T05:34:36.552Z,51.72
2022-12-02T05:35:08.986Z,52.22
2022-12-02T05:35:41.086Z,52.18
2022-12-02T05:36:13.358Z,52.37
2022-12-02T05:36:48.068Z,52.49
2022-12-02T05:37:20.134Z,52.29
2022-12-02T05:37:54.786Z,51.92
2022-12-02T05:38:26.860Z,51.97
2022-12-02T05:38:59.131Z,51.82
2022-12-02T05:39:33.815Z,51.85
2022-12-02T05:40:07.752Z,52.10
2022-12-02T05:40:39.905Z,52.08
2022-12-02T05:41:14.535Z,52.49
2022-12-02T05:41:50.897Z,52.09
2022-12-02T05:42:23.025Z,52.08
2022-12-02T05:42:58.380Z,52.40
2022-12-02T05:43:37.390Z,52.04
2022-12-02T05:44:23.978Z,52.36
2022-12-02T05:45:00.949Z,53.06
2022-12-02T05:45:33.028Z,52.81
2022-12-02T05:46:15.149Z,52.70
2022-12-02T05:46:48.034Z,52.37
2022-12-02T05:47:20.338Z,52.77
2022-12-02T05:47:57.207Z,52.54
2022-12-02T05:48:34.460Z,52.47
2022-12-02T05:49:14.832Z,52.63
2022-12-02T05:49:49.465Z,52.71
2022-12-02T05:50:22.676Z,52.88
2022-12-02T05:51:03.133Z,52.80
2022-12-02T05:51:35.227Z,52.62
2022-12-02T05:52:18.878Z,52.32
2022-12-02T05:52:53.884Z,52.61
2022-12-02T05:53:27.892Z,53.02
2022-12-02T05:54:00.071Z,52.75
2022-12-02T05:54:34.765Z,52.35
2022-12-02T05:55:12.763Z,52.65
2022-12-02T05:55:44.907Z,52.78
2022-12-02T05:56:26.412Z,52.88
2022-12-02T05:57:03.377Z,52.94
2022-12-02T05:57:35.597Z,53.35
2022-12-02T05:58:14.029Z,53.00
2022-12-02T05:58:46.122Z,53.01
2022-12-02T05:59:21.390Z,52.36
2022-12-02T06:00:00.466Z,52.46
2022-12-02T06:00:32.569Z,52.89
2022-12-02T06:01:21.797Z,52.59
2022-12-02T06:01:56.895Z,52.89
2022-12-02T06:02:40.655Z,53.46
2022-12-02T06:03:18.578Z,53.30
2022-12-02T08:21:30.696Z,52.70
2022-12-02T08:22:02.844Z,53.09
2022-12-02T08:22:34.938Z,52.85
2022-12-02T08:23:09.618Z,52.97
2022-12-02T08:23:41.673Z,53.22
2022-12-02T08:24:16.329Z,53.39
2022-12-02T08:24:48.591Z,52.79
2022-12-02T08:25:23.370Z,52.96
2022-12-02T08:25:55.724Z,52.88
2022-12-02T08:26:28.160Z,52.50
2022-12-02T08:27:02.929Z,52.52
2022-12-02T08:27:35.028Z,52.14
2022-12-02T08:28:09.735Z,52.23
2022-12-02T08:28:42.069Z,51.86
2022-12-02T08:29:16.790Z,52.08
2022-12-02T08:29:50.049Z,51.97
2022-12-02T08:30:24.707Z,52.18
2022-12-02T08:30:56.899Z,51.81
2022-12-02T08:31:32.113Z,51.46
2022-12-02T08:32:04.351Z,51.33
2022-12-02T08:32:36.749Z,50.98
2022-12-02T08:33:11.901Z,51.23
2022-12-02T08:33:44.265Z,51.25
2022-12-02T08:34:19.181Z,50.86
2022-12-02T08:34:51.465Z,51.23
2022-12-02T08:35:26.316Z,51.23
2022-12-02T08:35:58.395Z,51.31
2022-12-02T08:36:35.654Z,51.11
2022-12-02T08:37:07.838Z,51.13
2022-12-02T08:37:40.088Z,51.99
2022-12-02T08:38:14.786Z,51.19
2022-12-02T08:38:49.289Z,51.08
2022-12-02T08:39:23.993Z,51.43
2022-12-02T08:39:56.073Z,51.36
2022-12-02T08:40:28.146Z,51.59
2022-12-02T08:41:02.882Z,51.28
2022-12-02T08:41:36.165Z,51.12
2022-12-02T08:42:11.071Z,51.14
2022-12-02T08:42:43.149Z,51.28
2022-12-02T08:43:17.893Z,51.00
2022-12-02T08:43:50.119Z,50.84
2022-12-02T08:44:24.847Z,50.48
2022-12-02T08:44:56.975Z,50.85
2022-12-02T08:45:31.935Z,51.00
2022-12-02T08:46:04.094Z,49.81
2022-12-02T08:46:39.315Z,50.44
2022-12-02T08:47:11.551Z,50.23
2022-12-02T08:47:46.245Z,50.66
2022-12-02T08:48:18.322Z,50.52
2022-12-02T08:48:50.533Z,50.30
2022-12-02T08:49:25.645Z,50.33
2022-12-02T08:49:57.754Z,50.26
2022-12-02T08:50:29.829Z,50.71
2022-12-02T08:51:04.595Z,50.53
2022-12-02T08:51:39.266Z,50.81
2022-12-02T08:52:13.952Z,50.33
2022-12-02T08:52:46.033Z,50.25
2022-12-02T08:53:20.679Z,50.00
2022-12-02T08:53:53.438Z,50.07
2022-12-02T08:54:28.198Z,50.49
2022-12-02T08:55:00.332Z,50.12
2022-12-02T08:55:32.528Z,50.22
2022-12-02T08:56:07.475Z,49.90
2022-12-02T08:56:39.582Z,49.72
2022-12-02T08:57:11.785Z,49.73
2022-12-02T08:57:46.501Z,50.00
2022-12-02T08:58:18.683Z,50.40
2022-12-02T08:58:50.839Z,50.38
2022-12-02T08:59:26.080Z,50.71
2022-12-02T08:59:58.372Z,50.19
2022-12-02T09:00:38.588Z,49.86
2022-12-02T09:01:11.278Z,50.00
2022-12-02T09:01:46.063Z,50.43
2022-12-02T09:02:18.194Z,49.90
2022-12-02T09:02:52.918Z,50.01
2022-12-02T09:03:25.041Z,50.06
2022-12-02T09:03:59.685Z,50.09
2022-12-02T09:04:31.784Z,50.30
2022-12-02T09:05:07.595Z,49.34
2022-12-02T09:05:41.354Z,49.45
2022-12-02T09:06:16.121Z,49.14
2022-12-02T09:06:50.779Z,49.25
2022-12-02T09:07:25.526Z,48.94
2022-12-02T09:07:57.693Z,48.74
2022-12-02T09:08:32.736Z,48.83
2022-12-02T09:09:05.633Z,49.40
2022-12-02T09:09:40.317Z,49.07
2022-12-02T09:10:14.541Z,48.96
2022-12-02T09:10:49.815Z,49.49
2022-12-02T09:11:21.971Z,49.40
2022-12-02T09:11:56.621Z,49.65
2022-12-02T09:12:28.688Z,49.34
2022-12-02T09:13:00.767Z,49.53
2022-12-02T09:13:35.419Z,49.39
2022-12-02T09:14:07.467Z,49.25
2022-12-02T09:14:42.122Z,49.21
2022-12-02T09:15:14.170Z,49.31
2022-12-02T09:15:48.920Z,49.15
2022-12-02T09:16:21.135Z,49.15
2022-12-02T09:16:55.808Z,49.42
2022-12-02T09:17:27.899Z,48.90
2022-12-02T09:18:02.539Z,48.82
2022-12-02T09:18:35.134Z,48.69
2022-12-02T09:19:07.205Z,48.43
2022-12-02T09:19:41.848Z,48.44
2022-12-02T09:20:14.452Z,48.56
2022-12-02T09:20:49.191Z,48.31
2022-12-02T09:21:21.270Z,48.39
2022-12-02T09:21:55.933Z,48.11
2022-12-02T09:22:30.604Z,48.16
2022-12-02T09:23:02.923Z,48.45
2022-12-02T09:23:37.604Z,48.20
2022-12-02T09:24:09.691Z,48.38
2022-12-02T09:24:41.834Z,47.99
2022-12-02T09:25:17.509Z,48.14
2022-12-02T09:25:49.667Z,48.31
2022-12-02T09:26:24.377Z,48.18
2022-12-02T09:26:56.433Z,48.15
2022-12-02T09:27:31.112Z,48.54
2022-12-02T09:28:03.294Z,48.80
2022-12-02T09:28:35.463Z,49.02
2022-12-02T09:29:10.145Z,49.52
2022-12-02T09:29:42.280Z,49.25
2022-12-02T09:30:15.120Z,49.49
2022-12-02T09:30:49.860Z,49.01
2022-12-02T09:31:22.048Z,49.43
2022-12-02T09:31:56.809Z,49.27
2022-12-02T09:32:28.866Z,48.55
2022-12-02T09:33:03.506Z,48.88
2022-12-02T09:33:35.725Z,48.75
2022-12-02T09:34:10.394Z,48.53
2022-12-02T09:34:42.603Z,48.21
2022-12-02T09:35:14.998Z,48.56
2022-12-02T09:35:51.405Z,48.48
2022-12-02T09:36:23.665Z,48.58
2022-12-02T09:37:01.234Z,48.78
2022-12-02T09:37:33.811Z,49.09
2022-12-02T09:38:08.775Z,49.00
2022-12-02T09:38:41.111Z,49.54
2022-12-02T09:39:15.754Z,49.82
2022-12-02T09:39:48.682Z,49.75
2022-12-02T09:40:21.157Z,49.72
2022-12-02T09:40:56.134Z,49.32
2022-12-02T09:41:28.773Z,48.91
2022-12-02T09:42:03.999Z,48.84
2022-12-02T09:42:36.285Z,48.88
2022-12-02T09:43:08.605Z,48.45
2022-12-02T09:43:43.993Z,48.38
2022-12-02T09:44:16.239Z,48.51
2022-12-02T09:44:51.923Z,48.92
2022-12-02T09:45:24.377Z,48.79
2022-12-02T09:45:59.690Z,48.58
2022-12-02T09:46:32.096Z,48.18
2022-12-02T09:47:07.101Z,48.45
2022-12-02T09:47:40.331Z,48.26
2022-12-02T09:48:12.896Z,48.15
2022-12-02T09:48:47.649Z,47.88
2022-12-02T09:49:19.810Z,47.65
2022-12-02T09:49:54.883Z,47.57
2022-12-02T09:50:27.552Z,47.71
2022-12-02T09:51:02.904Z,47.70
2022-12-02T09:51:35.018Z,47.70
2022-12-02T09:52:22.438Z,47.72
2022-12-02T09:53:04.713Z,47.85
2022-12-02T09:53:42.102Z,47.79
2022-12-02T09:54:16.407Z,47.79
2022-12-02T09:54:48.672Z,47.71
2022-12-02T09:55:23.625Z,47.84
2022-12-02T09:55:56.221Z,47.84
2022-12-02T09:56:31.013Z,47.41
2022-12-02T09:57:03.087Z,47.65
2022-12-02T09:57:40.643Z,47.52
2022-12-02T09:58:15.871Z,47.22
2022-12-02T09:58:56.223Z,47.18
2022-12-02T09:59:28.557Z,48.24
2022-12-02T10:00:05.935Z,47.96
2022-12-02T10:00:38.014Z,47.86
2022-12-02T10:01:13.705Z,48.05
2022-12-02T10:01:48.861Z,47.87
2022-12-02T10:02:29.645Z,47.61
2022-12-02T10:03:01.984Z,47.60
2022-12-02T10:03:37.654Z,47.66
2022-12-02T10:04:10.401Z,47.00
2022-12-02T10:04:42.472Z,47.56
2022-12-02T10:05:19.952Z,47.44
2022-12-02T10:05:52.065Z,46.82
2022-12-02T10:06:28.936Z,47.16
2022-12-02T10:07:01.061Z,47.10
2022-12-02T10:07:38.375Z,47.12
2022-12-02T10:08:16.142Z,47.29
2022-12-02T10:08:50.944Z,47.03
2022-12-02T10:09:28.021Z,46.68
2022-12-02T10:10:03.348Z,47.29
2022-12-02T10:10:39.361Z,46.97
2022-12-02T10:11:23.316Z,46.99
2022-12-02T10:11:55.525Z,46.67
2022-12-02T10:12:28.026Z,46.83
2022-12-02T10:13:07.809Z,46.78
2022-12-02T10:13:41.357Z,47.04
2022-12-02T10:14:17.887Z,46.40
2022-12-02T10:14:51.863Z,46.16
2022-12-02T10:15:28.846Z,46.58
2022-12-02T10:16:02.935Z,46.47
2022-12-02T10:16:38.104Z,46.52
2022-12-02T10:17:16.374Z,46.39
2022-12-02T10:17:48.842Z,46.17
2022-12-02T10:18:26.233Z,46.49